Moore, Texas
Current Conditions -  °F | °C
As of 5:55 AM on Thursday 23 Oct 2014 (Local Time) from KCVB Reporting Station
Broken Clouds Broken Clouds  
Wind Chill: 20°   Ceiling: 12000
Heat Index: 20°   Visibility: 10mi
Dew Point: 18°   Wind: 3mph
Humidity: 92%   Direction: 180°S
Pressure: 30.1"   Gusts: NA
Location:  29.06°N, 99.01°W
Report Text: KCVB 231055Z AUTO 18003KT 10SM SCT055 BKN120 20/18 A3010 RMK AO2 T01970183
Loading
Personal Weather Stations






























Interactive Weather Map
Tropical Storm Tracking
New forecast layout! Learn more

10-Day Weather Forecast

Advertisements
Track Severe Weather on mobile